El Dorado Springs, MO (64744)

12:41 PM CDT on September 22, 2014 (GMT -0500)
City Park | Change Station
CLOSE
Current Station
Personal Weather Station
Location: Stockton, MO
Elevation: 958 ft
Nearby Weather Stations

Elev 958 ft 37.70 °N, 93.80 °W | Updated 8 seconds ago

Clear
Clear
69.8 °F
Feels Like 69.8 °F
N
8.3
Wind Variable Wind from NE
Gusts 10.7 mph

Today
High -- | Low -- °F
--% Chance of Precip.
Yesterday
High -- | Low -- °F
Precip. -- in
7:03 AM 7:13 PM
Waning Crescent, 2% visible
Pressure 30.31 in
Visibility 10.0 miles
Clouds Clear
Dew Point 53 °F
Humidity 56%
Rainfall 0.00 in
Snow Depth Not available.
UV 8 out of 12
Pollen 5.70 out of 12
Air Quality Not available.
Flu Activity Not available.
METAR KGLY 221735Z AUTO 00000KT 10SM CLR 21/12 A3031 RMK AO2

More Conditions Fewer Conditions

Pressure 30.31 in
Visibility 10.0 miles
Clouds Clear
Dew Point 53 °F
Humidity 56%
Rainfall 0.00 in
Snow Depth Not available.
UV 8 out of 12
Pollen 5.70 out of 12
Air Quality Not available.
Flu Activity Not available.
METAR KGLY 221735Z AUTO 00000KT 10SM CLR 21/12 A3031 RMK AO2

More Conditions Fewer Conditions

10-Day Weather Forecast

Almanac

Astronomy

Sep. 22, 2014 Rise Set
Actual Time 7:03 AM CDT 7:13 PM CDT
Civil Twilight 6:37 AM CDT 7:39 PM CDT
Nautical Twilight 6:06 AM CDT 8:09 PM CDT
Astronomical Twilight 5:35 AM CDT 8:40 PM CDT
Moon 5:34 AM CDT 6:20 PM CDT
Length of Visible Light 13h 01m
Length of Day
12h 09m
Tomorrow will be 2m 26s shorter.
Waning Crescent, 2% of the Moon is Illuminated
Today
Waning Crescent
Sep 24
New
Oct 1
First Quarter
Oct 8
Full
Oct 15
Last Quarter

Today's Extremes

State Highs State Lows

Community

WunderPhotos

Upload Photos

1,755,494 photos uploaded!

WunderBlogs® & News

Nearby

Snow Depth

Station Depth Elevation
No new snow has been reported.

Earthquake Activity

City Distance Mag. Time & Date
No recent earthquake activity has been reported nearby.
Minimum magnitude displayed is 2.5.

Coastal Water Temperatures

Place Temperature
No Stations Reporting

Nearby Weather Stations